Burlington, CO (80807)

2:20 PM MDT on June 25, 2017 (GMT -0600)
Kit Carson County | | Change Station

Elev 4219 ft 39.24 °N, 102.29 °W | Updated 27 minutes ago

Overcast
Overcast
69 °F
Feels Like 69 °F
N
17
Wind Variable Wind from ESE
Gusts 23 mph

Today
High -- | Low -- °F
--% Chance of Precip.
Yesterday
High -- | Low -- °F
Precip. -- in
Pressure 30.20 in
Visibility 10.0 miles
Clouds Overcast 2800 ft
Dew Point 55 °F
Humidity 61%
Rainfall 0.01 in
Snow Depth Not available.
5:23 AM 8:19 PM
Waxing Crescent, 4% visible
METAR KITR 251953Z AUTO 12015G20KT 10SM OVC028 21/13 A3031 RMK AO2 SLP227 T02060128
Pressure 30.20 in
Visibility 10.0 miles
Clouds Overcast 2800 ft
Dew Point 55 °F
Humidity 61%
Rainfall 0.01 in
Snow Depth Not available.
5:23 AM 8:19 PM
Waxing Crescent, 4% visible
METAR KITR 251953Z AUTO 12015G20KT 10SM OVC028 21/13 A3031 RMK AO2 SLP227 T02060128

Get Severe Weather Alerts

Thanks for signing up!

Be on the lookout for a verification email in your inbox.

You'll start receiving the daily forecast at 6 AM.

×

10-Day Weather Forecast

Almanac

Astronomy

Jun. 25, 2017 Rise Set
Actual Time
Civil Twilight
Nautical Twilight
Astronomical Twilight
Moon
Length of Visible Light
Length of Day
Tomorrow will be .
, % of the Moon is Illuminated

Today's Extremes

State Highs State Lows

Community

WunderPhotos

Category 6

Welcome to Category 6. This is the collective home for Weather Underground's featured writeups by Dr. Jeff Masters (right), Bob Henson (left), Chris Burt, and other regular contributors.

Nearby

Air Quality

  Air Quality AQ Index Pollutant
Not available.

Snow Depth

Station Depth Elevation

Earthquake Activity

City Distance Mag. Time & Date
Minimum magnitude displayed is 2.5.

Coastal Water Temperatures

Place Temperature

Stations

Nearby Weather Stations

Station Location Temp. Windchill Dew Point Humidity Wind Precip. Elev Updated Type
                   

Watches & Warnings

There are currently no watches in effect.